Time;durP1;ratioP1;P1;durP2;ratioP2;P2;SDS_P1;SDS_P2;PMS_P1;PMS_P2;Temp;Humidity;BMP_temperature;BMP_pressure;BME280_temperature;BME280_humidity;BME280_pressure;Samples;Min_cycle;Max_cycle;Signal;HPM_P1;HPM_P2
2022/08/13 00:02:17;;;;;;;1.52;1.42;;;23.60;75.00;;;;;;5093841;28;20188;-53
2022/08/13 00:04:59;;;;;;;1.50;1.40;;;23.70;75.70;;;;;;5093574;28;20177;-53
2022/08/13 00:07:26;;;;;;;3.38;2.60;;;23.70;75.70;;;;;;5093375;28;20168;-52
2022/08/13 00:09:52;;;;;;;3.67;1.95;;;23.70;75.80;;;;;;5094186;28;20162;-51
2022/08/13 00:15:20;;;;;;;3.03;1.90;;;23.60;76.00;;;;;;5094062;28;20584;-52
2022/08/13 00:17:51;;;;;;;2.08;1.80;;;23.60;76.20;;;;;;5093623;28;20161;-53
2022/08/13 00:20:21;;;;;;;5.93;2.03;;;23.60;75.80;;;;;;5093609;28;20165;-49
2022/08/13 00:22:47;;;;;;;4.00;1.88;;;23.50;76.50;;;;;;5092582;28;20192;-53
2022/08/13 00:25:14;;;;;;;16.15;2.85;;;23.40;76.40;;;;;;5093827;28;20540;-53
2022/08/13 00:27:47;;;;;;;1.90;1.77;;;23.40;76.70;;;;;;5093771;28;20165;-49
2022/08/13 00:30:16;;;;;;;2.42;1.88;;;23.40;77.00;;;;;;5093348;28;20631;-52
2022/08/13 00:32:45;;;;;;;2.10;1.90;;;23.30;76.80;;;;;;5093685;28;20252;-50
2022/08/13 00:35:12;;;;;;;4.45;1.70;;;23.30;77.30;;;;;;5093322;28;20621;-44
2022/08/13 00:37:41;;;;;;;2.15;1.95;;;23.20;77.30;;;;;;5093554;28;20206;-46
2022/08/13 00:40:10;;;;;;;1.83;1.70;;;23.20;77.90;;;;;;5093435;28;20169;-51
2022/08/13 00:42:37;;;;;;;1.75;1.65;;;23.20;77.70;;;;;;5093447;28;20170;-51
2022/08/13 00:45:04;;;;;;;2.08;1.63;;;23.10;78.00;;;;;;5093236;28;20535;-52
2022/08/13 00:50:14;;;;;;;4.20;1.70;;;23.10;78.10;;;;;;5093010;28;20192;-47
2022/08/13 00:52:40;;;;;;;6.28;1.80;;;23.10;78.30;;;;;;5093002;28;20193;-52
2022/08/13 00:55:11;;;;;;;1.92;1.60;;;23.00;79.00;;;;;;5092949;28;20161;-46
2022/08/13 00:57:37;;;;;;;4.70;2.17;;;23.00;78.80;;;;;;5074671;28;20173;-51
2022/08/13 01:00:11;;;;;;;5.25;2.20;;;22.90;79.50;;;;;;5093326;28;20166;-52
2022/08/13 01:02:38;;;;;;;1.95;1.80;;;22.90;79.80;;;;;;5092787;28;20161;-53
2022/08/13 01:05:04;;;;;;;2.67;2.13;;;22.90;79.50;;;;;;5091783;28;20179;-52
2022/08/13 01:07:30;;;;;;;2.67;1.88;;;22.80;79.70;;;;;;5074674;28;20252;-52
2022/08/13 01:09:56;;;;;;;3.55;1.75;;;22.90;79.60;;;;;;5092862;28;20195;-52
2022/08/13 01:12:23;;;;;;;2.47;1.70;;;22.80;80.30;;;;;;5092863;28;20216;-52
2022/08/13 01:14:50;;;;;;;6.53;2.97;;;22.80;80.40;;;;;;5093137;28;20177;-53
2022/08/13 01:17:22;;;;;;;1.73;1.63;;;22.70;81.00;;;;;;5092662;28;20176;-52
2022/08/13 01:19:50;;;;;;;3.05;1.80;;;22.70;81.50;;;;;;5092576;28;20189;-53
2022/08/13 01:22:16;;;;;;;4.72;1.90;;;22.70;81.00;;;;;;5092749;28;20536;-52
2022/08/13 01:24:42;;;;;;;1.85;1.65;;;22.70;81.10;;;;;;5092466;28;20168;-52
2022/08/13 01:27:09;;;;;;;4.88;2.35;;;22.70;81.40;;;;;;5092351;28;20230;-51
2022/08/13 01:29:36;;;;;;;3.22;2.05;;;22.70;81.10;;;;;;5092568;28;20539;-52
2022/08/13 01:32:05;;;;;;;2.45;1.98;;;22.70;81.20;;;;;;5074190;28;20212;-53
2022/08/13 01:34:32;;;;;;;2.22;2.03;;;22.60;81.40;;;;;;5092340;28;20171;-51
2022/08/13 01:36:58;;;;;;;5.05;2.00;;;22.60;82.60;;;;;;5092203;28;20176;-50
2022/08/13 01:39:28;;;;;;;4.65;2.42;;;22.50;82.70;;;;;;5092501;28;20165;-53
2022/08/13 01:41:54;;;;;;;9.13;2.10;;;22.50;83.00;;;;;;5092132;28;20207;-51
2022/08/13 01:44:20;;;;;;;2.58;1.70;;;22.50;83.50;;;;;;5092621;28;20169;-49
2022/08/13 01:52:16;;;;;;;3.72;2.10;;;22.40;84.00;;;;;;5091943;28;20223;-52
2022/08/13 01:54:42;;;;;;;3.88;1.98;;;22.40;84.30;;;;;;5091844;28;20544;-48
2022/08/13 01:57:08;;;;;;;3.78;2.53;;;22.40;84.20;;;;;;5092193;28;20177;-52
2022/08/13 01:59:37;;;;;;;2.20;2.00;;;22.30;84.00;;;;;;5092171;28;20186;-44
2022/08/13 02:02:04;;;;;;;4.93;2.22;;;22.40;84.40;;;;;;5092013;28;20165;-44
2022/08/13 02:04:32;;;;;;;3.85;2.20;;;22.40;84.70;;;;;;5092204;28;20532;-44
2022/08/13 02:06:59;;;;;;;2.22;2.03;;;22.30;85.20;;;;;;5091855;28;20173;-44
2022/08/13 02:09:26;;;;;;;2.33;2.00;;;22.20;86.60;;;;;;5092222;28;20174;-46
2022/08/13 02:11:52;;;;;;;3.03;1.98;;;22.10;87.30;;;;;;5092119;28;20208;-46
2022/08/13 02:14:21;;;;;;;1.80;1.70;;;22.10;87.00;;;;;;5092026;28;20216;-46
2022/08/13 02:16:47;;;;;;;2.28;2.08;;;22.00;89.10;;;;;;5092041;28;20177;-44
2022/08/13 02:19:13;;;;;;;3.42;2.40;;;21.90;89.30;;;;;;5091852;28;20640;-44
2022/08/13 02:21:40;;;;;;;5.35;2.10;;;21.80;91.00;;;;;;5091808;28;20161;-45
2022/08/13 02:24:13;;;;;;;3.28;2.13;;;21.70;91.00;;;;;;5091981;28;20204;-54
2022/08/13 02:26:42;;;;;;;1.88;1.73;;;21.60;91.70;;;;;;5091798;28;20241;-52
2022/08/13 02:29:09;;;;;;;4.18;1.98;;;21.60;92.60;;;;;;5091781;28;20162;-53
2022/08/13 02:31:35;;;;;;;3.17;2.25;;;21.60;92.80;;;;;;5091905;28;20219;-52
2022/08/13 02:34:01;;;;;;;3.33;2.20;;;21.50;93.20;;;;;;5091714;28;20173;-52
2022/08/13 02:36:27;;;;;;;4.68;2.10;;;21.50;93.40;;;;;;5091672;28;20173;-53
2022/08/13 02:39:00;;;;;;;3.92;2.65;;;21.40;94.30;;;;;;5091650;28;20193;-53
2022/08/13 02:41:38;;;;;;;5.82;2.25;;;21.40;93.60;;;;;;5091719;28;20204;-52
2022/08/13 02:44:04;;;;;;;4.82;3.03;;;21.50;94.10;;;;;;5091611;28;20628;-52
2022/08/13 02:46:30;;;;;;;5.03;3.05;;;21.50;94.30;;;;;;5092894;28;20173;-52
2022/08/13 02:48:59;;;;;;;3.78;2.53;;;21.50;93.10;;;;;;5095396;28;20210;-45
2022/08/13 02:51:26;;;;;;;3.80;2.30;;;21.50;94.60;;;;;;5095215;28;20209;-43
2022/08/13 02:53:53;;;;;;;2.40;2.20;;;21.50;95.00;;;;;;5095250;28;20162;-44
2022/08/13 02:56:19;;;;;;;4.18;2.15;;;21.40;95.30;;;;;;5095848;28;20174;-53
2022/08/13 02:58:45;;;;;;;3.03;2.38;;;21.40;95.20;;;;;;5095447;28;20248;-53
2022/08/13 03:01:13;;;;;;;5.70;2.45;;;21.60;93.50;;;;;;5095114;28;20646;-53
2022/08/13 03:03:40;;;;;;;2.72;2.53;;;21.50;95.80;;;;;;5095098;28;20169;-52
2022/08/13 03:06:08;;;;;;;3.45;2.38;;;21.40;96.60;;;;;;5095048;28;20723;-47
2022/08/13 03:08:35;;;;;;;2.85;2.35;;;21.40;96.50;;;;;;5076846;28;20180;-45
2022/08/13 03:11:01;;;;;;;2.65;2.45;;;21.40;96.80;;;;;;5094903;28;20676;-47
2022/08/13 03:13:32;;;;;;;2.90;2.13;;;21.30;97.00;;;;;;5094735;28;20296;-43
2022/08/13 03:16:01;;;;;;;2.28;2.03;;;21.30;96.30;;;;;;5095171;28;20173;-43
2022/08/13 03:18:27;;;;;;;4.07;2.50;;;21.30;97.20;;;;;;5094853;28;20154;-44
2022/08/13 03:20:53;;;;;;;5.05;2.50;;;21.20;97.10;;;;;;5094800;28;20176;-50
2022/08/13 03:23:20;;;;;;;3.03;2.47;;;21.30;97.60;;;;;;5095141;28;20526;-52
2022/08/13 03:25:46;;;;;;;4.65;2.50;;;21.30;97.60;;;;;;5094472;28;20196;-52
2022/08/13 03:28:11;;;;;;;2.75;2.55;;;21.30;96.80;;;;;;5094381;28;20547;-52
2022/08/13 03:30:37;;;;;;;3.35;2.53;;;21.30;97.00;;;;;;5094123;28;20201;-52
2022/08/13 03:33:06;;;;;;;5.22;2.30;;;21.30;98.10;;;;;;5094640;28;20180;-52
2022/08/13 03:35:32;;;;;;;3.30;2.70;;;21.20;97.30;;;;;;5094457;28;20184;-53
2022/08/13 03:37:58;;;;;;;3.22;2.20;;;21.30;98.40;;;;;;5094483;28;20511;-48
2022/08/13 03:41:00;;;;;;;2.67;2.42;;;21.20;98.50;;;;;;5094529;28;20580;-51
2022/08/13 03:43:12;;;;;;;4.57;2.60;;;21.20;98.10;;;;;;5094127;28;20256;-53
2022/08/13 03:45:37;;;;;;;3.92;2.45;;;21.20;98.60;;;;;;5094330;28;20629;-54
2022/08/13 03:48:04;;;;;;;5.95;2.10;;;21.10;98.50;;;;;;5094334;28;20180;-52
2022/08/13 03:50:29;;;;;;;2.95;2.30;;;21.20;98.50;;;;;;5094219;28;20726;-53
2022/08/13 03:53:01;;;;;;;4.00;2.65;;;21.10;99.80;;;;;;5094298;28;20173;-51
2022/08/13 03:55:26;;;;;;;3.20;2.50;;;21.00;99.90;;;;;;5076482;28;20521;-44
2022/08/13 03:57:52;;;;;;;4.15;2.10;;;21.10;99.90;;;;;;5094088;28;20172;-45
2022/08/13 04:00:18;;;;;;;3.63;2.20;;;21.00;99.90;;;;;;5094433;28;20191;-46
2022/08/13 04:02:43;;;;;;;3.25;2.28;;;21.00;99.90;;;;;;5094113;28;20191;-44
2022/08/13 04:05:16;;;;;;;3.50;2.58;;;20.90;99.90;;;;;;5094015;28;20738;-46
2022/08/13 04:07:43;;;;;;;3.00;2.20;;;20.90;99.90;;;;;;5094171;28;20177;-44
2022/08/13 04:10:11;;;;;;;2.90;2.10;;;20.90;99.90;;;;;;5093928;28;20180;-43
2022/08/13 04:12:37;;;;;;;3.78;2.10;;;20.90;99.90;;;;;;5093645;28;20688;-52
2022/08/13 04:15:03;;;;;;;3.30;2.15;;;21.00;99.90;;;;;;5093797;28;20214;-52
2022/08/13 04:17:29;;;;;;;4.03;2.65;;;21.00;99.90;;;;;;5093713;28;20525;-52
2022/08/13 04:19:58;;;;;;;6.22;2.55;;;21.00;99.90;;;;;;5093766;28;20172;-52
2022/08/13 04:22:25;;;;;;;4.25;2.20;;;21.00;99.90;;;;;;5093607;28;20184;-53
2022/08/13 04:24:51;;;;;;;4.75;2.60;;;20.90;99.90;;;;;;5093947;28;20176;-43
2022/08/13 04:27:17;;;;;;;5.82;3.08;;;20.90;99.90;;;;;;5075734;28;20169;-53
2022/08/13 04:29:43;;;;;;;4.80;2.35;;;21.00;99.90;;;;;;5093372;28;20572;-50
2022/08/13 04:32:08;;;;;;;5.70;2.38;;;20.90;99.90;;;;;;5093524;28;20209;-52
2022/08/13 04:34:34;;;;;;;2.80;2.25;;;20.90;99.90;;;;;;5093458;28;20664;-52
2022/08/13 04:37:01;;;;;;;4.18;2.60;;;20.90;99.90;;;;;;5093318;28;20219;-53
2022/08/13 04:39:27;;;;;;;2.55;2.33;;;20.90;99.90;;;;;;5093548;28;20628;-52
2022/08/13 04:41:53;;;;;;;4.03;2.35;;;21.00;99.90;;;;;;5093286;28;20248;-53
2022/08/13 04:44:19;;;;;;;5.07;2.50;;;21.00;99.90;;;;;;5093854;28;20216;-53
2022/08/13 04:46:45;;;;;;;4.07;2.50;;;21.10;99.90;;;;;;5093068;28;20616;-52
2022/08/13 04:49:13;;;;;;;3.40;2.30;;;21.10;99.90;;;;;;5093425;28;20660;-43
2022/08/13 04:51:39;;;;;;;2.78;2.33;;;21.00;99.90;;;;;;5092950;28;20197;-53
2022/08/13 04:54:05;;;;;;;2.60;2.40;;;21.00;99.90;;;;;;5093057;28;20176;-50
2022/08/13 04:56:31;;;;;;;2.72;2.35;;;21.10;99.90;;;;;;5092994;28;20169;-49
2022/08/13 04:58:57;;;;;;;2.42;2.22;;;21.10;99.90;;;;;;5092813;28;20169;-52
2022/08/13 05:01:22;;;;;;;5.30;2.47;;;21.10;99.90;;;;;;5092859;28;20169;-50
2022/08/13 05:03:49;;;;;;;2.63;2.13;;;21.10;99.90;;;;;;5093180;28;20169;-49
2022/08/13 05:06:21;;;;;;;3.75;2.80;;;21.20;99.90;;;;;;5092817;28;20260;-43
2022/08/13 05:08:48;;;;;;;3.65;2.42;;;21.20;99.90;;;;;;5092488;28;20988;-43
2022/08/13 05:11:15;;;;;;;3.55;2.17;;;21.20;99.90;;;;;;5092436;28;20242;-44
2022/08/13 05:13:45;;;;;;;2.30;2.10;;;21.30;99.90;;;;;;5092336;28;20209;-44
2022/08/13 05:16:14;;;;;;;5.05;2.20;;;21.20;99.90;;;;;;5092566;28;20219;-44
2022/08/13 05:18:43;;;;;;;3.00;2.38;;;21.20;99.90;;;;;;5092707;28;20231;-43
2022/08/13 05:21:08;;;;;;;2.35;2.15;;;21.30;99.90;;;;;;5092508;28;20165;-44
2022/08/13 05:23:36;;;;;;;5.30;2.17;;;21.40;99.90;;;;;;5092501;28;20165;-43
2022/08/13 05:26:03;;;;;;;7.00;2.85;;;21.50;99.90;;;;;;5092362;28;20617;-43
2022/08/13 05:28:30;;;;;;;9.07;2.97;;;21.50;99.90;;;;;;5092597;28;20176;-44
2022/08/13 05:30:56;;;;;;;11.25;3.00;;;21.50;99.90;;;;;;5074766;28;20292;-44
2022/08/13 05:33:25;;;;;;;7.65;2.60;;;21.60;99.90;;;;;;5074183;28;20509;-46
2022/08/13 05:35:55;;;;;;;3.80;2.50;;;21.50;99.90;;;;;;5092284;28;20157;-46
2022/08/13 05:38:22;;;;;;;9.98;2.63;;;21.50;99.90;;;;;;5092202;28;20192;-50
2022/08/13 05:40:49;;;;;;;5.10;2.70;;;21.50;99.90;;;;;;5092558;28;20506;-53
2022/08/13 05:43:19;;;;;;;6.97;2.28;;;21.60;99.90;;;;;;5092404;28;20220;-52
2022/08/13 05:45:49;;;;;;;3.05;2.55;;;21.70;99.90;;;;;;5092190;28;20195;-52
2022/08/13 05:48:15;;;;;;;7.72;3.65;;;21.80;99.90;;;;;;5092066;28;20244;-49
2022/08/13 05:50:44;;;;;;;9.98;2.67;;;22.00;99.90;;;;;;5092322;28;20774;-50
2022/08/13 05:53:11;;;;;;;11.52;3.15;;;22.00;99.90;;;;;;5092177;28;20162;-48
2022/08/13 05:55:39;;;;;;;6.22;2.78;;;22.10;99.90;;;;;;5091963;28;20172;-52
2022/08/13 05:58:07;;;;;;;12.38;3.10;;;22.10;99.90;;;;;;5092223;28;20169;-52
2022/08/13 06:03:27;;;;;;;3.47;2.50;;;22.20;99.90;;;;;;5092664;28;20176;-52
2022/08/13 06:05:58;;;;;;;10.30;3.45;;;22.30;99.90;;;;;;5092177;28;20160;-52
2022/08/13 06:08:29;;;;;;;3.05;2.50;;;22.30;99.90;;;;;;5091864;28;20624;-52
2022/08/13 06:10:59;;;;;;;3.03;2.10;;;22.40;99.90;;;;;;5091894;28;20205;-53
2022/08/13 06:13:26;;;;;;;3.92;2.80;;;22.40;99.90;;;;;;5091663;28;20277;-52
2022/08/13 06:15:58;;;;;;;9.82;2.80;;;22.50;99.90;;;;;;5091822;28;20641;-51
2022/08/13 06:18:27;;;;;;;14.45;3.67;;;22.60;99.90;;;;;;5091783;28;20172;-48
2022/08/13 06:20:55;;;;;;;20.83;4.85;;;22.70;99.90;;;;;;5092102;28;20165;-51
2022/08/13 06:23:24;;;;;;;22.63;5.00;;;22.80;99.90;;;;;;5096230;28;20196;-52
2022/08/13 06:25:52;;;;;;;34.00;4.70;;;22.80;99.90;;;;;;5096269;28;20166;-52
2022/08/13 06:28:23;;;;;;;29.42;5.57;;;22.90;99.90;;;;;;5096121;28;20632;-50
2022/08/13 06:31:01;;;;;;;17.08;3.55;;;23.10;99.90;;;;;;5096299;28;20212;-52
2022/08/13 06:33:33;;;;;;;8.00;2.55;;;23.20;99.90;;;;;;5095459;28;20252;-51
2022/08/13 06:36:04;;;;;;;4.93;2.63;;;23.20;99.90;;;;;;5095161;28;20161;-49
2022/08/13 06:38:32;;;;;;;3.15;2.33;;;23.30;99.90;;;;;;5094462;28;20530;-51
2022/08/13 06:41:01;;;;;;;2.58;2.13;;;23.40;99.90;;;;;;5094552;28;20173;-52
2022/08/13 06:43:28;;;;;;;5.70;2.28;;;23.40;99.90;;;;;;5094490;28;20161;-49
2022/08/13 06:45:56;;;;;;;5.57;2.30;;;23.40;99.90;;;;;;5094468;28;20705;-43
2022/08/13 06:48:24;;;;;;;7.38;2.13;;;23.60;99.90;;;;;;5094670;28;20177;-46
2022/08/13 06:50:50;;;;;;;5.20;2.40;;;23.60;99.90;;;;;;5094269;28;20703;-45
2022/08/13 06:53:16;;;;;;;7.93;2.47;;;23.60;99.90;;;;;;5095363;28;20161;-52
2022/08/13 06:55:45;;;;;;;15.77;3.80;;;23.80;99.90;;;;;;5095213;28;20197;-50
2022/08/13 06:58:11;;;;;;;15.38;3.83;;;23.90;99.90;;;;;;5095095;28;20248;-49
2022/08/13 07:00:38;;;;;;;11.75;2.50;;;24.00;99.90;;;;;;5095061;28;20636;-44
2022/08/13 07:03:05;;;;;;;11.75;2.70;;;24.10;99.90;;;;;;5094963;28;20222;-42
2022/08/13 07:05:38;;;;;;;8.77;2.60;;;24.20;99.90;;;;;;5095244;28;20166;-44
2022/08/13 07:08:07;;;;;;;6.88;1.80;;;24.30;99.90;;;;;;5095113;28;20228;-45
2022/08/13 07:10:34;;;;;;;2.90;2.08;;;24.30;99.90;;;;;;5094709;28;20204;-48
2022/08/13 07:13:02;;;;;;;4.35;1.92;;;24.40;99.90;;;;;;5094931;28;20273;-52
2022/08/13 07:15:29;;;;;;;3.17;2.17;;;24.60;99.90;;;;;;5095088;28;20171;-48
2022/08/13 07:17:56;;;;;;;2.08;1.77;;;24.80;99.90;;;;;;5094808;28;20248;-43
2022/08/13 07:20:22;;;;;;;2.13;1.73;;;24.90;99.00;;;;;;5094838;28;20164;-42
2022/08/13 07:22:48;;;;;;;2.97;1.70;;;25.00;99.20;;;;;;5095115;28;20165;-48
2022/08/13 07:25:14;;;;;;;2.03;1.65;;;25.00;98.40;;;;;;5094660;28;20168;-45
2022/08/13 07:27:41;;;;;;;6.00;2.13;;;25.20;98.20;;;;;;5094638;28;20161;-43
2022/08/13 07:30:08;;;;;;;6.45;2.40;;;25.30;97.50;;;;;;5094511;28;20168;-44
2022/08/13 07:32:38;;;;;;;5.38;1.95;;;25.50;96.70;;;;;;5092668;28;20255;-44
2022/08/13 07:35:05;;;;;;;13.80;2.35;;;25.50;96.00;;;;;;5094535;28;20154;-44
2022/08/13 07:37:30;;;;;;;4.97;2.10;;;25.50;95.20;;;;;;5094356;28;20172;-46
2022/08/13 07:39:58;;;;;;;3.22;1.65;;;25.60;95.30;;;;;;5094286;28;20169;-43
2022/08/13 07:42:25;;;;;;;2.95;2.00;;;25.70;95.20;;;;;;5094504;28;20169;-46
2022/08/13 07:44:52;;;;;;;3.00;1.85;;;25.90;94.80;;;;;;5094262;28;20191;-45
2022/08/13 07:47:19;;;;;;;3.72;1.90;;;25.90;94.20;;;;;;5094780;28;20200;-51
2022/08/13 07:49:46;;;;;;;3.95;2.33;;;26.10;93.70;;;;;;5094738;28;20192;-52
2022/08/13 07:52:15;;;;;;;5.95;1.70;;;26.10;93.80;;;;;;5094062;28;20679;-52
2022/08/13 07:54:46;;;;;;;2.08;1.60;;;26.30;93.60;;;;;;5094076;28;20534;-52
2022/08/13 07:57:12;;;;;;;3.35;1.60;;;26.30;93.00;;;;;;5094087;28;20176;-52
2022/08/13 07:59:37;;;;;;;1.85;1.60;;;26.30;92.30;;;;;;5094042;28;20161;-47
2022/08/13 08:02:07;;;;;;;5.15;1.83;;;26.40;93.00;;;;;;5093938;28;20639;-50
2022/08/13 08:04:37;;;;;;;3.90;1.60;;;26.40;92.30;;;;;;5094070;28;20252;-45
2022/08/13 08:07:03;;;;;;;3.15;1.73;;;26.40;92.20;;;;;;5093716;28;20552;-43
2022/08/13 08:09:30;;;;;;;1.83;1.63;;;26.60;92.00;;;;;;5093880;28;20165;-46
2022/08/13 08:14:45;;;;;;;2.72;1.77;;;26.80;90.90;;;;;;5094420;28;20255;-45
2022/08/13 08:17:11;;;;;;;1.65;1.55;;;27.00;90.70;;;;;;5093794;28;20169;-52
2022/08/13 08:19:41;;;;;;;3.35;1.60;;;27.00;90.00;;;;;;5076061;28;20177;-53
2022/08/13 08:22:08;;;;;;;2.28;1.60;;;27.00;89.70;;;;;;5093570;28;20646;-52
2022/08/13 08:24:35;;;;;;;5.03;1.60;;;27.10;90.00;;;;;;5093691;28;20180;-52
2022/08/13 08:27:04;;;;;;;1.83;1.70;;;27.10;90.10;;;;;;5093853;28;20560;-50
2022/08/13 08:29:31;;;;;;;2.53;1.77;;;27.30;89.40;;;;;;5093405;28;20525;-51
2022/08/13 08:32:04;;;;;;;3.65;1.48;;;27.40;90.00;;;;;;5093257;28;20258;-52
2022/08/13 08:34:30;;;;;;;2.95;1.50;;;27.40;89.00;;;;;;5093252;28;20648;-52
2022/08/13 08:36:56;;;;;;;3.42;1.77;;;27.70;88.30;;;;;;5093229;28;20177;-51
2022/08/13 08:44:55;;;;;;;2.38;1.60;;;27.80;86.30;;;;;;5092657;28;20250;-48
2022/08/13 08:47:27;;;;;;;4.60;1.80;;;28.00;86.00;;;;;;5093223;28;20161;-49
2022/08/13 08:49:56;;;;;;;1.70;1.60;;;28.10;85.80;;;;;;5093293;28;20175;-52
2022/08/13 08:53:19;;;;;;;1.95;1.85;;;28.00;84.90;;;;;;5092919;28;20249;-52
2022/08/13 08:55:11;;;;;;;2.83;1.58;;;28.10;83.40;;;;;;5092819;28;20169;-52
2022/08/13 08:57:39;;;;;;;2.95;1.60;;;28.30;83.60;;;;;;5092925;28;20169;-51
2022/08/13 09:00:06;;;;;;;2.67;1.60;;;28.40;83.70;;;;;;5092881;28;20581;-52
2022/08/13 09:02:33;;;;;;;4.57;1.70;;;28.40;82.50;;;;;;5092968;28;20169;-49
2022/08/13 09:05:01;;;;;;;2.75;1.40;;;28.50;82.40;;;;;;5092632;28;20598;-52
2022/08/13 09:07:29;;;;;;;1.75;1.55;;;28.40;84.00;;;;;;5092986;28;20164;-52
2022/08/13 09:09:56;;;;;;;1.60;1.50;;;28.50;82.70;;;;;;5092926;28;20165;-53
2022/08/13 09:12:25;;;;;;;3.40;1.42;;;28.60;81.50;;;;;;5092576;28;20215;-52
2022/08/13 09:14:52;;;;;;;1.70;1.60;;;28.70;81.30;;;;;;5092474;28;20165;-49
2022/08/13 09:17:19;;;;;;;1.77;1.45;;;28.60;79.10;;;;;;5093130;28;20172;-52
2022/08/13 09:19:45;;;;;;;1.40;1.30;;;28.80;81.20;;;;;;5092860;28;20620;-52
2022/08/13 09:22:14;;;;;;;2.45;1.55;;;28.80;79.10;;;;;;5092473;28;20169;-53
2022/08/13 09:24:40;;;;;;;2.60;1.52;;;28.60;79.50;;;;;;5092257;28;20700;-52
2022/08/13 09:27:07;;;;;;;3.28;1.42;;;28.90;79.80;;;;;;5092307;28;20200;-52
2022/08/13 09:29:33;;;;;;;2.97;1.65;;;29.00;78.40;;;;;;5092313;28;20160;-52
2022/08/13 09:31:59;;;;;;;2.75;1.35;;;29.00;78.40;;;;;;5092223;28;20204;-53
2022/08/13 09:34:25;;;;;;;3.13;1.58;;;29.10;78.10;;;;;;5092294;28;20248;-52
2022/08/13 09:36:56;;;;;;;6.90;1.70;;;29.40;78.60;;;;;;5092513;28;20169;-52
2022/08/13 09:39:52;;;;;;;1.85;1.75;;;29.40;75.90;;;;;;5092504;28;20168;-50
2022/08/13 09:42:25;;;;;;;3.17;1.60;;;29.50;77.20;;;;;;5092769;28;20169;-43
2022/08/13 09:44:53;;;;;;;6.00;2.03;;;29.50;76.10;;;;;;5092325;28;20238;-44
2022/08/13 09:47:18;;;;;;;5.82;1.75;;;29.60;76.30;;;;;;5092351;28;20614;-44
2022/08/13 09:49:48;;;;;;;3.33;2.05;;;29.70;77.60;;;;;;5092278;28;20165;-46
2022/08/13 09:52:14;;;;;;;2.08;1.70;;;29.80;76.60;;;;;;5091664;28;20222;-52
2022/08/13 09:54:41;;;;;;;3.08;1.92;;;29.90;76.00;;;;;;5057060;28;20252;-52
2022/08/13 09:57:07;;;;;;;2.45;1.50;;;29.90;76.30;;;;;;5092139;28;20172;-45
2022/08/13 09:59:33;;;;;;;1.70;1.60;;;29.80;75.60;;;;;;5091994;28;20157;-52
2022/08/13 10:02:02;;;;;;;1.58;1.40;;;29.70;75.50;;;;;;5091794;28;20239;-43
2022/08/13 10:04:29;;;;;;;1.95;1.60;;;29.70;76.20;;;;;;5092197;28;20257;-53
2022/08/13 10:06:59;;;;;;;5.70;1.92;;;30.00;76.00;;;;;;5091766;28;20628;-53
2022/08/13 10:09:26;;;;;;;4.88;1.90;;;30.20;74.70;;;;;;5091853;28;20672;-44
2022/08/13 10:11:58;;;;;;;1.60;1.50;;;30.30;74.10;;;;;;5091941;28;20208;-49
2022/08/13 10:14:23;;;;;;;1.75;1.48;;;30.10;74.40;;;;;;5091629;28;20185;-44
2022/08/13 10:16:50;;;;;;;1.80;1.67;;;30.20;73.20;;;;;;5092259;28;20561;-43
2022/08/13 10:19:16;;;;;;;4.72;1.60;;;30.30;73.10;;;;;;5092310;28;20195;-47
2022/08/13 10:21:42;;;;;;;2.03;1.83;;;30.20;71.70;;;;;;5091207;28;20656;-43
2022/08/13 10:24:07;;;;;;;1.50;1.40;;;30.20;72.10;;;;;;5091982;28;20171;-43
2022/08/13 10:26:33;;;;;;;2.13;1.70;;;30.40;72.40;;;;;;5091758;28;20564;-43
2022/08/13 10:28:59;;;;;;;3.55;1.65;;;30.50;71.30;;;;;;5091612;28;20256;-45
2022/08/13 10:31:28;;;;;;;1.75;1.65;;;30.70;71.30;;;;;;5091730;28;20196;-47
2022/08/13 10:33:54;;;;;;;2.67;1.85;;;30.70;71.20;;;;;;5091504;28;20620;-47
2022/08/13 10:36:21;;;;;;;2.47;1.50;;;30.80;72.20;;;;;;5091533;28;20157;-45
2022/08/13 10:38:47;;;;;;;2.47;1.50;;;30.90;71.40;;;;;;5092108;28;20169;-50
2022/08/13 10:41:13;;;;;;;1.70;1.60;;;31.00;70.00;;;;;;5091546;28;20164;-52
2022/08/13 10:43:39;;;;;;;1.80;1.50;;;31.00;72.00;;;;;;5090922;28;20169;-53
2022/08/13 10:46:09;;;;;;;1.88;1.67;;;31.00;70.00;;;;;;5091630;28;20529;-50
2022/08/13 10:48:34;;;;;;;3.05;1.90;;;31.20;71.00;;;;;;5091436;28;20194;-53
2022/08/13 10:51:00;;;;;;;1.48;1.38;;;31.10;69.90;;;;;;5091303;28;20248;-52
2022/08/13 10:56:11;;;;;;;1.88;1.73;;;31.10;69.80;;;;;;5091599;28;20218;-44
2022/08/13 10:58:37;;;;;;;3.50;1.77;;;31.20;70.30;;;;;;5091578;28;20538;-46
2022/08/13 11:01:05;;;;;;;2.25;1.73;;;31.20;68.70;;;;;;5091430;28;20169;-48
2022/08/13 11:03:33;;;;;;;2.97;1.75;;;31.40;68.40;;;;;;5091383;28;20161;-48
2022/08/13 11:06:00;;;;;;;1.80;1.65;;;31.30;67.70;;;;;;5091507;28;20180;-43
2022/08/13 11:08:38;;;;;;;3.53;1.77;;;31.30;68.40;;;;;;5093716;28;20174;-43
2022/08/13 11:11:09;;;;;;;2.40;1.75;;;31.60;68.10;;;;;;5094956;28;20188;-45
2022/08/13 11:13:39;;;;;;;1.77;1.67;;;31.50;68.50;;;;;;5094794;28;20283;-49
2022/08/13 11:16:51;;;;;;;2.40;1.50;;;31.50;69.20;;;;;;5094827;28;20206;-44
2022/08/13 11:18:52;;;;;;;3.35;1.80;;;31.70;69.40;;;;;;5093787;28;20259;-49
2022/08/13 11:21:18;;;;;;;2.25;1.80;;;31.70;66.20;;;;;;5094277;28;20168;-45
2022/08/13 11:23:44;;;;;;;4.22;1.95;;;31.80;67.60;;;;;;5094528;28;20535;-43
2022/08/13 11:26:10;;;;;;;1.80;1.55;;;31.90;66.30;;;;;;5094454;28;20203;-44
2022/08/13 11:28:36;;;;;;;1.70;1.60;;;31.90;65.60;;;;;;5094180;28;20222;-42
2022/08/13 11:31:01;;;;;;;2.45;1.80;;;31.70;66.60;;;;;;5094210;28;20197;-44
2022/08/13 11:33:27;;;;;;;2.55;1.75;;;31.80;66.30;;;;;;5094096;28;20177;-46
2022/08/13 11:35:53;;;;;;;2.13;1.58;;;31.80;65.40;;;;;;5094085;28;20616;-51
2022/08/13 11:38:21;;;;;;;2.90;1.65;;;31.60;65.50;;;;;;5094702;28;20172;-45
2022/08/13 11:40:52;;;;;;;2.88;1.63;;;32.10;66.00;;;;;;5094700;28;20173;-43
2022/08/13 11:43:28;;;;;;;2.60;1.70;;;32.00;64.70;;;;;;5094840;28;20169;-43
2022/08/13 11:45:54;;;;;;;3.10;1.80;;;32.20;64.40;;;;;;5094566;28;20172;-49
2022/08/13 11:48:21;;;;;;;1.83;1.50;;;32.10;64.40;;;;;;5093915;28;20638;-48
2022/08/13 11:51:01;;;;;;;1.50;1.40;;;32.20;64.00;;;;;;5094339;28;20278;-42
2022/08/13 11:53:35;;;;;;;1.88;1.77;;;31.70;63.20;;;;;;5094118;28;20615;-46
2022/08/13 11:56:01;;;;;;;4.00;1.73;;;31.60;63.10;;;;;;5093841;28;20164;-42
2022/08/13 11:58:27;;;;;;;1.70;1.60;;;31.60;63.40;;;;;;5094189;28;20176;-42
2022/08/13 12:00:54;;;;;;;1.58;1.48;;;31.80;63.70;;;;;;5093901;28;20290;-43
2022/08/13 12:03:24;;;;;;;2.50;1.80;;;32.10;63.40;;;;;;5093454;28;20175;-42
2022/08/13 12:05:50;;;;;;;2.22;1.80;;;32.10;63.10;;;;;;5093730;28;20628;-42
2022/08/13 12:08:17;;;;;;;2.03;1.50;;;32.10;62.70;;;;;;5094211;28;20291;-52
2022/08/13 12:10:44;;;;;;;2.20;1.55;;;32.50;62.10;;;;;;5093836;28;20275;-51
2022/08/13 12:13:10;;;;;;;1.67;1.58;;;32.70;62.90;;;;;;5093317;28;20220;-52
2022/08/13 12:15:36;;;;;;;2.00;1.80;;;32.60;63.10;;;;;;5093490;28;20169;-53
2022/08/13 12:18:01;;;;;;;1.70;1.60;;;32.50;62.00;;;;;;5092761;28;20161;-52
2022/08/13 12:20:27;;;;;;;3.22;2.08;;;32.70;62.10;;;;;;5092574;28;20172;-50
2022/08/13 12:22:55;;;;;;;3.50;1.40;;;32.50;61.00;;;;;;5093599;28;20175;-52
2022/08/13 12:25:22;;;;;;;1.63;1.52;;;32.80;60.50;;;;;;5093278;28;20160;-50
2022/08/13 12:27:48;;;;;;;5.13;1.98;;;32.60;60.50;;;;;;5093905;28;20180;-50
2022/08/13 12:30:14;;;;;;;3.97;1.55;;;32.70;61.50;;;;;;5093383;28;20156;-44
2022/08/13 12:32:39;;;;;;;4.43;2.13;;;32.90;61.10;;;;;;5092751;28;20204;-45
2022/08/13 12:35:06;;;;;;;1.60;1.50;;;33.00;60.80;;;;;;5093519;28;20169;-47
2022/08/13 12:37:31;;;;;;;1.80;1.70;;;33.10;60.80;;;;;;5092989;28;20222;-43
2022/08/13 12:39:58;;;;;;;1.85;1.60;;;32.90;58.90;;;;;;5092950;28;20570;-42
2022/08/13 12:42:26;;;;;;;2.10;1.70;;;32.90;59.50;;;;;;5092717;28;20188;-43
2022/08/13 12:44:52;;;;;;;1.67;1.58;;;32.90;59.30;;;;;;5092921;28;20219;-44
2022/08/13 12:47:18;;;;;;;3.85;2.00;;;33.10;59.50;;;;;;5092977;28;20165;-45
2022/08/13 12:49:43;;;;;;;1.98;1.70;;;33.00;59.00;;;;;;5092795;28;20222;-44
2022/08/13 12:52:09;;;;;;;1.73;1.63;;;33.00;58.90;;;;;;5092813;28;20204;-43
2022/08/13 12:54:35;;;;;;;4.30;1.75;;;33.00;58.80;;;;;;5093063;28;20165;-48
2022/08/13 12:57:00;;;;;;;2.00;1.60;;;33.10;58.80;;;;;;5092651;28;20169;-47
2022/08/13 12:59:26;;;;;;;1.88;1.77;;;32.90;59.00;;;;;;5091398;28;20168;-47
2022/08/13 13:01:54;;;;;;;3.05;1.73;;;33.00;58.60;;;;;;5092341;28;20169;-51
2022/08/13 13:04:22;;;;;;;5.05;1.60;;;33.10;57.90;;;;;;5092537;28;20172;-46
2022/08/13 13:06:52;;;;;;;4.78;1.80;;;33.30;59.70;;;;;;5093062;28;20564;-47
2022/08/13 13:09:18;;;;;;;3.78;1.73;;;33.30;59.10;;;;;;5092823;28;20171;-48
2022/08/13 13:11:45;;;;;;;2.55;1.60;;;33.40;59.40;;;;;;5092880;28;20219;-43
2022/08/13 13:14:11;;;;;;;2.70;2.05;;;33.30;58.20;;;;;;5092229;28;20283;-43